Time;durP1;ratioP1;P1;durP2;ratioP2;P2;SDS_P1;SDS_P2;PMS_P1;PMS_P2;Temp;Humidity;BMP_temperature;BMP_pressure;BME280_temperature;BME280_humidity;BME280_pressure;Samples;Min_cycle;Max_cycle;Signal;HPM_P1;HPM_P2
2023/12/27 00:01:21;;;;;;;11.25;7.55;;;;;;;2.21;100.00;98104.50;1223813;75;2939725;-62
2023/12/27 00:03:54;;;;;;;6.90;5.20;;;;;;;2.21;100.00;98109.16;1224193;75;2918208;-66
2023/12/27 00:06:27;;;;;;;7.40;4.90;;;;;;;2.03;100.00;98112.88;1224137;75;2919858;-63
2023/12/27 00:09:00;;;;;;;10.50;6.20;;;;;;;1.62;100.00;98107.63;1224508;75;2922932;-65
2023/12/27 00:11:33;;;;;;;7.20;5.55;;;;;;;1.79;100.00;98111.28;1223720;75;2933848;-67
2023/12/27 00:14:07;;;;;;;7.65;5.45;;;;;;;1.69;100.00;98116.41;1224478;75;2922826;-65
2023/12/27 00:16:42;;;;;;;8.00;6.00;;;;;;;1.32;100.00;98125.28;1223837;75;2915195;-66
2023/12/27 00:19:15;;;;;;;7.35;6.65;;;;;;;1.33;100.00;98126.06;1224411;75;2930453;-68
2023/12/27 00:21:48;;;;;;;7.35;6.00;;;;;;;1.67;100.00;98139.56;1223293;75;2918472;-66
2023/12/27 00:24:21;;;;;;;7.80;5.85;;;;;;;1.72;100.00;98143.75;1224230;75;2920632;-64
2023/12/27 00:26:53;;;;;;;7.85;6.05;;;;;;;1.47;100.00;98153.66;1224046;75;2926949;-66
2023/12/27 00:29:26;;;;;;;10.25;5.90;;;;;;;1.51;100.00;98153.59;1224115;75;2927160;-67
2023/12/27 00:32:02;;;;;;;9.50;6.65;;;;;;;1.46;100.00;98156.75;1224305;75;2920983;-66
2023/12/27 00:34:35;;;;;;;6.80;5.40;;;;;;;1.44;100.00;98178.75;1224681;75;2920654;-64
2023/12/27 00:37:09;;;;;;;6.85;6.00;;;;;;;1.27;100.00;98172.38;1224068;75;2922616;-67
2023/12/27 00:39:42;;;;;;;9.40;7.45;;;;;;;1.24;100.00;98178.53;1224484;75;2916145;-65
2023/12/27 00:42:15;;;;;;;7.65;6.35;;;;;;;1.27;100.00;98177.75;1224883;75;2922809;-65
2023/12/27 00:44:48;;;;;;;6.80;5.20;;;;;;;1.36;100.00;98185.38;1223533;75;2930968;-68
2023/12/27 00:47:23;;;;;;;7.65;5.85;;;;;;;1.09;100.00;98163.66;1224705;75;2919959;-67
2023/12/27 00:49:56;;;;;;;6.30;4.95;;;;;;;1.12;100.00;98164.81;1224802;75;2918825;-67
2023/12/27 00:52:28;;;;;;;6.15;4.45;;;;;;;1.23;100.00;98176.25;1223837;75;2924540;-68
2023/12/27 00:55:02;;;;;;;4.90;4.10;;;;;;;1.27;100.00;98188.56;1224507;75;2921952;-66
2023/12/27 00:57:34;;;;;;;4.65;4.00;;;;;;;1.10;100.00;98188.69;1224045;75;2927764;-64
2023/12/27 01:00:09;;;;;;;6.30;5.40;;;;;;;0.88;100.00;98193.50;1223849;75;2921071;-69
2023/12/27 01:02:44;;;;;;;6.00;4.25;;;;;;;1.05;100.00;98195.28;1224522;75;2929212;-65
2023/12/27 01:05:17;;;;;;;5.35;4.30;;;;;;;1.03;100.00;98195.69;1221471;75;2922001;-69
2023/12/27 01:07:50;;;;;;;4.85;3.95;;;;;;;1.06;100.00;98199.53;1221315;75;2999125;-67
2023/12/27 01:10:23;;;;;;;4.60;4.10;;;;;;;0.98;100.00;98189.94;1224492;75;2916889;-64
2023/12/27 01:12:56;;;;;;;5.50;4.10;;;;;;;1.02;100.00;98194.16;1224376;75;2924917;-66
2023/12/27 01:15:30;;;;;;;5.40;3.65;;;;;;;0.95;100.00;98209.63;1224003;75;2923210;-67
2023/12/27 01:18:05;;;;;;;4.55;3.80;;;;;;;0.89;100.00;98203.91;1224431;75;2920650;-66
2023/12/27 01:20:38;;;;;;;4.45;3.40;;;;;;;0.88;100.00;98204.28;1223615;75;2932295;-65
2023/12/27 01:23:11;;;;;;;7.20;4.65;;;;;;;0.79;100.00;98208.19;1224716;75;2918601;-65
2023/12/27 01:25:44;;;;;;;6.45;4.45;;;;;;;0.80;100.00;98201.66;1224649;75;2916003;-65
2023/12/27 01:28:17;;;;;;;5.90;4.30;;;;;;;0.68;100.00;98206.75;1223670;75;2928941;-66
2023/12/27 01:30:50;;;;;;;4.85;3.85;;;;;;;0.68;100.00;98204.06;1224540;75;2914841;-66
2023/12/27 01:33:25;;;;;;;5.10;4.00;;;;;;;0.87;100.00;98218.91;1223941;75;2924965;-67
2023/12/27 01:35:58;;;;;;;7.85;5.45;;;;;;;0.49;100.00;98214.16;1224014;75;2926036;-67
2023/12/27 01:38:31;;;;;;;7.15;5.05;;;;;;;0.63;100.00;98218.72;1223936;75;2897519;-67
2023/12/27 01:41:04;;;;;;;9.45;5.15;;;;;;;0.78;100.00;98233.59;1224164;75;2926582;-67
2023/12/27 01:43:37;;;;;;;6.90;5.15;;;;;;;0.91;100.00;98243.91;1223818;75;2921698;-68
2023/12/27 01:46:10;;;;;;;7.80;5.40;;;;;;;0.65;100.00;98237.94;1223713;75;2918779;-66
2023/12/27 01:48:47;;;;;;;6.65;4.75;;;;;;;0.76;100.00;98238.63;1224620;75;2917098;-66
2023/12/27 01:51:20;;;;;;;6.45;4.45;;;;;;;0.56;100.00;98257.22;1224058;75;2919428;-67
2023/12/27 01:53:53;;;;;;;6.05;5.15;;;;;;;0.49;100.00;98243.03;1223536;75;2914433;-66
2023/12/27 01:56:26;;;;;;;7.05;5.85;;;;;;;0.41;100.00;98235.00;1224137;75;2924597;-67
2023/12/27 01:59:00;;;;;;;5.60;4.50;;;;;;;0.69;100.00;98248.69;1223948;75;2924639;-68
2023/12/27 02:01:33;;;;;;;6.25;4.40;;;;;;;0.55;100.00;98253.00;1224243;75;2924871;-66
2023/12/27 02:04:08;;;;;;;5.50;3.80;;;;;;;0.53;100.00;98260.72;1223711;75;2923693;-65
2023/12/27 02:06:42;;;;;;;5.20;3.85;;;;;;;0.41;100.00;98272.69;1224322;75;2920838;-67
2023/12/27 02:09:15;;;;;;;6.40;4.75;;;;;;;0.40;100.00;98273.84;1225141;75;2917674;-65
2023/12/27 02:11:47;;;;;;;5.30;3.80;;;;;;;0.52;100.00;98269.94;1223989;75;2924047;-67
2023/12/27 02:14:20;;;;;;;4.85;3.30;;;;;;;0.38;100.00;98270.00;1224914;75;2907581;-67
2023/12/27 02:16:53;;;;;;;5.10;4.00;;;;;;;0.17;100.00;98270.88;1224077;75;2922464;-66
2023/12/27 02:19:31;;;;;;;9.50;6.00;;;;;;;-0.09;100.00;98269.44;1223483;67;2920499;-67
2023/12/27 02:22:05;;;;;;;6.80;5.10;;;;;;;0.03;100.00;98268.25;1224834;75;2913264;-67
2023/12/27 02:24:42;;;;;;;5.80;4.70;;;;;;;0.15;100.00;98276.66;1224283;75;2922032;-66
2023/12/27 02:27:15;;;;;;;5.90;4.50;;;;;;;0.17;100.00;98276.28;1223764;75;2922804;-66
2023/12/27 02:29:48;;;;;;;4.35;3.70;;;;;;;0.13;100.00;98270.13;1224221;75;2915200;-65
2023/12/27 02:32:21;;;;;;;4.60;3.45;;;;;;;0.13;100.00;98272.81;1223842;75;2935752;-65
2023/12/27 02:34:51;;;;;;;4.90;2.95;;;;;;;0.09;100.00;98269.38;1224493;75;2922912;-64
2023/12/27 02:37:24;;;;;;;5.35;3.35;;;;;;;0.02;100.00;98270.16;1224202;75;2920339;-64
2023/12/27 02:40:02;;;;;;;4.25;3.25;;;;;;;-0.05;100.00;98273.66;1223158;75;2951194;-66
2023/12/27 02:42:36;;;;;;;4.80;3.40;;;;;;;0.09;100.00;98264.75;1224047;75;2902144;-63
2023/12/27 02:45:11;;;;;;;5.35;3.45;;;;;;;-0.04;100.00;98259.03;1224556;75;2923008;-66
2023/12/27 02:47:44;;;;;;;4.45;3.40;;;;;;;0.04;100.00;98256.31;1224434;75;2919454;-65
2023/12/27 02:50:16;;;;;;;3.60;3.05;;;;;;;0.07;100.00;98263.59;1223956;75;2923172;-66
2023/12/27 02:52:49;;;;;;;3.50;2.85;;;;;;;0.10;100.00;98262.84;1224403;75;2929603;-68
2023/12/27 02:55:25;;;;;;;3.20;2.70;;;;;;;0.08;100.00;98257.06;1224628;75;2922078;-66
2023/12/27 02:57:57;;;;;;;7.65;4.70;;;;;;;0.19;100.00;98263.16;1224108;75;2928624;-67
2023/12/27 03:00:34;;;;;;;6.55;5.35;;;;;;;0.37;100.00;98265.78;1224098;75;2924268;-66
2023/12/27 03:03:08;;;;;;;9.75;6.25;;;;;;;0.44;100.00;98273.09;1223100;75;2936515;-66
2023/12/27 03:05:40;;;;;;;5.90;4.50;;;;;;;0.54;100.00;98269.56;1225083;75;2925173;-67
2023/12/27 03:08:13;;;;;;;5.10;4.05;;;;;;;0.58;100.00;98257.59;1224821;75;2918296;-66
2023/12/27 03:10:49;;;;;;;5.40;3.90;;;;;;;0.60;100.00;98281.44;1224057;75;2918910;-66
2023/12/27 03:13:21;;;;;;;5.45;3.65;;;;;;;0.55;100.00;98261.06;1224195;75;2926977;-66
2023/12/27 03:15:54;;;;;;;4.25;2.90;;;;;;;0.58;100.00;98268.38;1224960;75;2927811;-65
2023/12/27 03:18:27;;;;;;;4.15;2.90;;;;;;;0.44;100.00;98262.31;1224262;75;2925280;-67
2023/12/27 03:21:00;;;;;;;4.20;3.40;;;;;;;0.30;100.00;98253.13;1224533;67;2933809;-66
2023/12/27 03:23:33;;;;;;;8.95;5.80;;;;;;;0.31;100.00;98260.03;1224066;75;2919917;-67
2023/12/27 03:26:08;;;;;;;7.35;5.40;;;;;;;0.40;100.00;98267.69;1224628;75;2926599;-63
2023/12/27 03:28:41;;;;;;;7.10;5.35;;;;;;;0.29;100.00;98270.44;1224593;67;2918007;-69
2023/12/27 03:31:15;;;;;;;6.65;4.95;;;;;;;0.08;100.00;98267.84;1224691;75;2925318;-68
2023/12/27 03:33:48;;;;;;;6.95;4.80;;;;;;;0.08;100.00;98271.28;1223221;75;2957956;-66
2023/12/27 03:36:21;;;;;;;5.65;4.35;;;;;;;0.24;100.00;98270.88;1224063;75;2924941;-67
2023/12/27 03:38:53;;;;;;;5.60;4.25;;;;;;;0.18;100.00;98269.72;1224108;75;2926722;-67
2023/12/27 03:41:30;;;;;;;4.35;3.65;;;;;;;0.29;100.00;98283.13;1222745;75;2943518;-64
2023/12/27 03:44:03;;;;;;;3.85;3.35;;;;;;;0.33;100.00;98290.03;1223903;75;2919138;-65
2023/12/27 03:46:36;;;;;;;4.50;3.50;;;;;;;0.38;100.00;98286.16;1224380;75;2932180;-64
2023/12/27 03:49:08;;;;;;;3.90;3.05;;;;;;;0.37;100.00;98280.03;1223707;75;2920538;-68
2023/12/27 03:51:41;;;;;;;3.95;2.80;;;;;;;0.37;100.00;98284.66;1224443;75;2923411;-66
2023/12/27 03:54:14;;;;;;;3.65;3.00;;;;;;;0.33;100.00;98287.34;1224713;75;2926351;-66
2023/12/27 03:56:50;;;;;;;4.80;3.90;;;;;;;0.23;100.00;98287.41;1223516;75;2929116;-66
2023/12/27 03:59:23;;;;;;;4.15;3.35;;;;;;;0.13;100.00;98295.13;1224675;75;2923158;-64
2023/12/27 04:01:56;;;;;;;5.65;3.85;;;;;;;0.30;100.00;98290.81;1223805;75;2928187;-65
2023/12/27 04:04:29;;;;;;;4.55;3.15;;;;;;;0.33;100.00;98291.97;1222229;75;2928884;-67
2023/12/27 04:07:01;;;;;;;3.80;3.25;;;;;;;0.16;100.00;98291.63;1222893;75;2911939;-64
2023/12/27 04:09:34;;;;;;;4.20;3.40;;;;;;;0.17;100.00;98292.44;1224766;75;2922968;-65
2023/12/27 04:12:11;;;;;;;4.05;3.65;;;;;;;0.17;100.00;98282.41;1223755;75;2918762;-66
2023/12/27 04:14:44;;;;;;;4.35;3.15;;;;;;;0.34;100.00;98293.53;1223650;75;2920515;-66
2023/12/27 04:17:16;;;;;;;3.95;2.90;;;;;;;0.29;100.00;98299.28;1223581;75;2935135;-66
2023/12/27 04:19:49;;;;;;;3.55;2.85;;;;;;;0.24;100.00;98311.25;1224445;75;2924742;-68
2023/12/27 04:22:22;;;;;;;4.00;3.00;;;;;;;0.39;100.00;98312.72;1223991;75;2934376;-65
2023/12/27 04:24:55;;;;;;;3.35;2.65;;;;;;;0.39;100.00;98323.50;1224621;75;2925488;-65
2023/12/27 04:27:30;;;;;;;3.15;2.55;;;;;;;0.47;100.00;98318.09;1223671;75;2926741;-65
2023/12/27 04:30:03;;;;;;;2.70;2.40;;;;;;;0.44;100.00;98311.56;1224037;75;2891117;-66
2023/12/27 04:32:36;;;;;;;3.10;2.35;;;;;;;0.45;100.00;98309.63;1223475;75;2930632;-67
2023/12/27 04:35:10;;;;;;;3.35;2.30;;;;;;;0.35;100.00;98328.13;1224040;75;2921272;-67
2023/12/27 04:37:43;;;;;;;3.50;2.35;;;;;;;0.42;100.00;98328.09;1223621;75;2916555;-66
2023/12/27 04:40:16;;;;;;;4.40;2.30;;;;;;;0.49;100.00;98327.31;1224028;75;2922893;-64
2023/12/27 04:42:51;;;;;;;3.70;2.70;;;;;;;0.41;100.00;98323.88;1221872;75;2976218;-68
2023/12/27 04:45:24;;;;;;;4.05;2.85;;;;;;;0.55;100.00;98330.34;1223964;75;2923968;-66
2023/12/27 04:47:57;;;;;;;3.85;2.80;;;;;;;0.62;100.00;98330.31;1223930;75;2925266;-65
2023/12/27 04:50:30;;;;;;;3.70;2.70;;;;;;;0.56;100.00;98342.69;1223628;75;2938627;-67
2023/12/27 04:53:03;;;;;;;4.05;3.05;;;;;;;0.51;100.00;98340.38;1223951;75;2934784;-66
2023/12/27 04:55:35;;;;;;;3.80;2.70;;;;;;;0.63;100.00;98343.41;1223787;75;2937355;-65
2023/12/27 04:58:11;;;;;;;6.00;4.05;;;;;;;0.45;100.00;98345.41;1222464;83;2931031;-65
2023/12/27 05:00:44;;;;;;;4.60;3.25;;;;;;;0.64;100.00;98347.63;1223887;75;2921991;-66
2023/12/27 05:03:17;;;;;;;4.30;3.40;;;;;;;0.68;100.00;98353.00;1223027;75;2921977;-65
2023/12/27 05:05:49;;;;;;;4.00;2.95;;;;;;;0.73;100.00;98363.38;1223558;75;2926324;-65
2023/12/27 05:08:22;;;;;;;3.65;2.80;;;;;;;0.77;100.00;98361.44;1222516;75;2932076;-66
2023/12/27 05:10:55;;;;;;;3.80;3.25;;;;;;;0.62;100.00;98359.94;1223391;75;2934442;-68
2023/12/27 05:13:31;;;;;;;3.95;3.05;;;;;;;0.76;100.00;98376.06;1222996;75;2925186;-66
2023/12/27 05:16:03;;;;;;;4.05;2.90;;;;;;;0.71;100.00;98379.16;1223716;75;2930123;-67
2023/12/27 05:18:36;;;;;;;5.10;3.55;;;;;;;0.50;100.00;98361.16;1222957;75;2939719;-66
2023/12/27 05:21:10;;;;;;;7.45;4.75;;;;;;;0.52;100.00;98363.47;1221861;75;2936310;-65
2023/12/27 05:23:43;;;;;;;5.40;4.35;;;;;;;0.63;100.00;98366.91;1223434;75;2927981;-64
2023/12/27 05:26:16;;;;;;;5.85;4.10;;;;;;;0.82;100.00;98379.91;1223316;75;2921326;-67
2023/12/27 05:28:51;;;;;;;4.25;3.15;;;;;;;0.93;100.00;98381.78;1223798;75;2930560;-65
2023/12/27 05:31:24;;;;;;;3.75;3.15;;;;;;;0.85;100.00;98381.03;1223975;75;2921366;-64
2023/12/27 05:33:57;;;;;;;3.85;2.70;;;;;;;0.98;100.00;98382.13;1222485;75;2925785;-66
2023/12/27 05:36:30;;;;;;;3.90;2.80;;;;;;;0.96;100.00;98394.44;1223157;75;2923020;-64
2023/12/27 05:39:14;;;;;;;2.95;2.40;;;;;;;1.02;100.00;98404.44;1252019;75;2808750;-62
2023/12/27 05:41:47;;;;;;;4.05;2.50;;;;;;;1.03;100.00;98399.81;1224307;75;2937877;-64
2023/12/27 05:44:20;;;;;;;4.05;3.05;;;;;;;0.84;100.00;98403.75;1224198;75;2922250;-64
2023/12/27 05:46:53;;;;;;;4.05;3.45;;;;;;;0.87;100.00;98410.28;1224721;75;2921091;-64
2023/12/27 05:49:26;;;;;;;3.75;3.35;;;;;;;0.98;100.00;98409.06;1225290;75;2930392;-65
2023/12/27 05:51:58;;;;;;;3.00;2.60;;;;;;;1.00;100.00;98409.44;1224649;75;2931766;-63
2023/12/27 05:54:34;;;;;;;3.10;2.60;;;;;;;1.00;100.00;98416.78;1219953;75;3240542;-63
2023/12/27 05:57:07;;;;;;;3.80;2.40;;;;;;;0.95;100.00;98419.88;1223900;75;2938415;-66
2023/12/27 05:59:40;;;;;;;2.60;2.05;;;;;;;0.92;100.00;98410.66;1224465;67;2929448;-62
2023/12/27 06:02:13;;;;;;;2.65;2.20;;;;;;;0.95;100.00;98426.03;1224864;75;2927727;-64
2023/12/27 06:04:46;;;;;;;3.20;2.40;;;;;;;0.95;100.00;98425.28;1224912;75;2925269;-66
2023/12/27 06:07:19;;;;;;;2.35;2.10;;;;;;;0.81;100.00;98423.41;1224281;75;2925921;-66
2023/12/27 06:09:54;;;;;;;3.40;3.00;;;;;;;0.72;100.00;98425.75;1224038;75;2925111;-65
2023/12/27 06:12:27;;;;;;;4.40;3.40;;;;;;;0.67;100.00;98431.53;1224229;75;2933592;-65
2023/12/27 06:15:00;;;;;;;3.75;2.70;;;;;;;0.74;100.00;98426.13;1224860;75;2935627;-64
2023/12/27 06:17:33;;;;;;;5.90;4.25;;;;;;;0.58;100.00;98435.41;1225053;75;2935429;-66
2023/12/27 06:20:07;;;;;;;8.00;5.10;;;;;;;0.57;100.00;98433.88;1224865;75;2924462;-65
2023/12/27 06:22:41;;;;;;;6.95;4.55;;;;;;;0.53;100.00;98435.81;1224440;75;2924594;-63
2023/12/27 06:25:17;;;;;;;6.80;5.20;;;;;;;0.77;100.00;98438.81;1225007;75;2924134;-65
2023/12/27 06:27:50;;;;;;;7.30;5.45;;;;;;;0.79;100.00;98434.56;1224233;75;2929676;-63
2023/12/27 06:30:23;;;;;;;9.25;6.45;;;;;;;0.73;100.00;98446.16;1224247;75;2924035;-65
2023/12/27 06:32:55;;;;;;;8.50;7.40;;;;;;;0.69;100.00;98451.53;1224635;75;2929278;-66
2023/12/27 06:35:28;;;;;;;7.75;6.10;;;;;;;0.66;100.00;98452.31;1223163;75;2934415;-64
2023/12/27 06:38:01;;;;;;;8.05;5.60;;;;;;;0.55;100.00;98457.72;1225751;75;2926532;-64
2023/12/27 06:40:36;;;;;;;6.55;5.40;;;;;;;0.70;100.00;98471.16;1225052;75;2924178;-65
2023/12/27 06:43:09;;;;;;;6.35;4.60;;;;;;;0.90;100.00;98460.72;1224846;67;2924083;-66
2023/12/27 06:45:42;;;;;;;5.60;4.40;;;;;;;1.02;100.00;98479.16;1225834;75;2930080;-65
2023/12/27 06:48:15;;;;;;;4.65;3.60;;;;;;;1.02;100.00;98473.78;1225119;75;2920579;-64
2023/12/27 06:50:48;;;;;;;7.10;4.15;;;;;;;1.03;100.00;98486.88;1224807;75;2944168;-66
2023/12/27 06:53:21;;;;;;;6.35;4.30;;;;;;;1.14;100.00;98491.44;1224732;75;2931659;-64
2023/12/27 06:55:56;;;;;;;4.20;3.40;;;;;;;1.19;100.00;98497.19;1225282;75;2926608;-65
2023/12/27 06:58:29;;;;;;;5.60;4.40;;;;;;;0.97;100.00;98498.44;1224611;75;2924133;-64
2023/12/27 07:01:02;;;;;;;7.10;5.30;;;;;;;1.17;100.00;98491.41;1224697;75;2920562;-64
2023/12/27 07:03:35;;;;;;;5.25;4.60;;;;;;;1.25;100.00;98494.84;1225110;75;2925231;-64
2023/12/27 07:06:08;;;;;;;6.15;5.10;;;;;;;1.11;100.00;98492.22;1224692;75;2934677;-65
2023/12/27 07:08:43;;;;;;;7.60;6.15;;;;;;;1.18;100.00;98500.28;1224183;75;2928304;-65
2023/12/27 07:11:24;;;;;;;5.85;4.90;;;;;;;1.24;100.00;98496.78;1222643;75;2932426;-66
2023/12/27 07:13:57;;;;;;;6.00;4.75;;;;;;;1.30;100.00;98491.78;1221263;75;2940849;-67
2023/12/27 07:16:30;;;;;;;5.30;4.50;;;;;;;1.43;100.00;98497.47;1222923;75;2921295;-64
2023/12/27 07:19:03;;;;;;;5.10;4.35;;;;;;;1.31;100.00;98519.50;1223401;75;2923721;-65
2023/12/27 07:21:36;;;;;;;11.20;8.60;;;;;;;1.26;100.00;98524.13;1223379;75;2927889;-65
2023/12/27 07:24:09;;;;;;;35.40;24.70;;;;;;;1.30;100.00;98529.53;1222882;75;2933294;-65
2023/12/27 07:26:45;;;;;;;46.00;34.45;;;;;;;1.23;100.00;98526.88;1222868;75;2937702;-65
2023/12/27 07:29:18;;;;;;;37.70;27.55;;;;;;;1.44;100.00;98529.47;1222644;75;2920670;-68
2023/12/27 07:31:52;;;;;;;32.90;24.10;;;;;;;1.30;100.00;98521.44;1223228;75;2932212;-66
2023/12/27 07:34:25;;;;;;;27.05;20.95;;;;;;;1.37;100.00;98540.28;1224044;75;2919660;-65
2023/12/27 07:36:57;;;;;;;19.65;15.55;;;;;;;1.30;100.00;98521.44;1223052;75;2924431;-66
2023/12/27 07:39:32;;;;;;;16.75;13.60;;;;;;;1.68;100.00;98524.31;1221382;75;2932791;-65
2023/12/27 07:42:08;;;;;;;14.25;11.70;;;;;;;1.80;100.00;98528.50;1222380;75;2931290;-65
2023/12/27 07:44:41;;;;;;;12.75;10.75;;;;;;;1.92;100.00;98534.22;1222717;75;2924596;-65
2023/12/27 07:47:14;;;;;;;10.10;8.35;;;;;;;2.82;100.00;98544.31;1223315;75;2918642;-63
2023/12/27 07:49:47;;;;;;;11.00;9.00;;;;;;;3.77;100.00;98557.09;1221968;75;2924056;-64
2023/12/27 07:52:19;;;;;;;12.95;10.65;;;;;;;3.97;100.00;98561.88;1222149;75;2928612;-65
2023/12/27 07:54:52;;;;;;;10.25;9.25;;;;;;;4.66;100.00;98549.56;1222598;75;2933664;-63
2023/12/27 07:57:29;;;;;;;12.55;10.15;;;;;;;4.68;100.00;98549.91;1223612;75;2923512;-66
2023/12/27 08:00:02;;;;;;;13.55;11.15;;;;;;;4.32;100.00;98547.03;1223709;75;2930956;-63
2023/12/27 08:02:35;;;;;;;13.60;11.45;;;;;;;4.45;100.00;98544.53;1223639;75;2921837;-66
2023/12/27 08:05:08;;;;;;;18.00;13.40;;;;;;;3.92;100.00;98544.16;1222778;75;2944919;-66
2023/12/27 08:07:41;;;;;;;20.75;17.85;;;;;;;3.66;100.00;98542.97;1222507;75;2931106;-67
2023/12/27 08:10:15;;;;;;;19.30;17.25;;;;;;;4.01;100.00;98544.38;1223203;75;2930986;-65
2023/12/27 08:12:50;;;;;;;14.35;12.55;;;;;;;3.80;100.00;98560.94;1223099;67;2925040;-63
2023/12/27 08:15:23;;;;;;;11.25;9.10;;;;;;;4.06;100.00;98567.53;1223231;75;2931261;-68
2023/12/27 08:17:56;;;;;;;8.90;7.40;;;;;;;4.32;100.00;98578.78;1223009;75;2888383;-65
2023/12/27 08:20:29;;;;;;;10.65;9.20;;;;;;;4.07;100.00;98571.03;1221953;75;2923657;-63
2023/12/27 08:23:02;;;;;;;9.95;8.70;;;;;;;4.20;100.00;98580.88;1223009;75;2925733;-64
2023/12/27 08:25:36;;;;;;;10.45;8.30;;;;;;;4.13;100.00;98589.13;1223730;75;2924146;-64
2023/12/27 08:28:11;;;;;;;17.15;15.40;;;;;;;3.99;100.00;98589.31;1222733;75;2933305;-66
2023/12/27 08:30:44;;;;;;;12.35;9.45;;;;;;;4.09;100.00;98590.34;1223620;75;2923255;-66
2023/12/27 08:33:17;;;;;;;10.95;9.05;;;;;;;4.26;100.00;98592.81;1221729;75;2922270;-67
2023/12/27 08:35:50;;;;;;;12.15;9.30;;;;;;;4.03;100.00;98598.16;1222586;75;2921743;-66
2023/12/27 08:38:24;;;;;;;11.85;8.70;;;;;;;4.56;100.00;98596.63;1222066;75;2923983;-66
2023/12/27 08:40:57;;;;;;;10.05;8.35;;;;;;;5.01;100.00;98595.50;1223087;75;2917946;-67
2023/12/27 08:43:35;;;;;;;13.25;9.25;;;;;;;4.93;100.00;98603.00;1224813;75;2841350;-65
2023/12/27 08:46:12;;;;;;;11.20;9.30;;;;;;;5.27;100.00;98608.19;1224088;75;2922554;-66
2023/12/27 08:48:46;;;;;;;12.40;9.20;;;;;;;4.69;100.00;98616.56;1223567;75;2924834;-65
2023/12/27 08:51:19;;;;;;;13.05;9.55;;;;;;;4.77;100.00;98627.28;1223707;75;2926685;-66
2023/12/27 08:53:52;;;;;;;12.85;9.10;;;;;;;5.03;100.00;98637.31;1223847;75;2923419;-64
2023/12/27 08:56:25;;;;;;;15.10;9.60;;;;;;;4.82;100.00;98640.38;1224427;75;2921635;-65
2023/12/27 08:59:00;;;;;;;14.25;10.55;;;;;;;4.94;100.00;98634.38;1223139;75;2920781;-67
2023/12/27 09:01:33;;;;;;;15.85;11.25;;;;;;;5.11;100.00;98637.97;1224008;75;2921141;-65
2023/12/27 09:04:06;;;;;;;15.45;11.55;;;;;;;5.44;100.00;98622.63;1222604;75;2926546;-68
2023/12/27 09:06:39;;;;;;;17.80;12.00;;;;;;;5.48;100.00;98628.75;1222447;75;2934559;-66
2023/12/27 09:09:15;;;;;;;15.55;10.75;;;;;;;5.76;100.00;98629.38;1223690;75;2913370;-66
2023/12/27 09:11:48;;;;;;;13.10;10.75;;;;;;;6.10;100.00;98637.22;1223188;75;2933940;-63
2023/12/27 09:14:23;;;;;;;12.85;10.20;;;;;;;6.69;100.00;98632.06;1223461;75;2947471;-66
2023/12/27 09:16:56;;;;;;;14.25;10.40;;;;;;;7.13;98.17;98633.28;1223081;75;2923188;-66
2023/12/27 09:19:29;;;;;;;12.65;9.00;;;;;;;7.88;91.45;98638.66;1222087;75;2940350;-64
2023/12/27 09:22:02;;;;;;;10.45;8.20;;;;;;;8.91;83.91;98645.69;1222642;75;2925271;-66
2023/12/27 09:24:35;;;;;;;12.75;7.80;;;;;;;8.86;79.50;98640.78;1223536;75;2922558;-63
2023/12/27 09:27:08;;;;;;;10.25;8.15;;;;;;;9.30;80.48;98643.63;1222647;75;2924270;-62
2023/12/27 09:29:44;;;;;;;9.95;7.65;;;;;;;10.17;76.98;98635.84;1223189;75;2924606;-65
2023/12/27 09:32:17;;;;;;;10.50;7.50;;;;;;;9.95;75.22;98644.84;1222494;75;2929698;-64
2023/12/27 09:34:49;;;;;;;10.35;7.95;;;;;;;10.95;70.91;98639.47;1223804;75;2922735;-64
2023/12/27 09:37:22;;;;;;;12.80;8.50;;;;;;;12.30;69.13;98637.56;1222319;75;2922348;-64
2023/12/27 09:39:55;;;;;;;9.75;6.80;;;;;;;12.85;65.74;98631.81;1223487;75;2922027;-65
2023/12/27 09:42:32;;;;;;;9.60;6.90;;;;;;;12.67;65.79;98623.66;1222836;75;2930687;-63
2023/12/27 09:45:11;;;;;;;8.50;6.00;;;;;;;14.21;61.55;98624.81;1220601;75;2933714;-65
2023/12/27 09:47:47;;;;;;;9.60;6.65;;;;;;;13.84;61.37;98610.72;1221954;75;2929023;-66
2023/12/27 09:50:20;;;;;;;9.40;6.90;;;;;;;13.74;60.32;98601.78;1221368;75;2930361;-66
2023/12/27 09:52:53;;;;;;;12.95;7.85;;;;;;;12.18;64.86;98605.56;1223348;75;2922190;-68
2023/12/27 09:55:26;;;;;;;9.25;7.10;;;;;;;14.32;60.81;98604.22;1222456;75;2925941;-67
2023/12/27 09:57:59;;;;;;;9.40;6.25;;;;;;;14.41;59.76;98607.63;1222201;75;2928775;-64
2023/12/27 10:00:36;;;;;;;8.85;6.20;;;;;;;14.39;59.37;98606.59;1222505;75;2924639;-64
2023/12/27 10:03:15;;;;;;;8.60;6.10;;;;;;;14.95;58.99;98599.09;1222894;75;2925535;-65
2023/12/27 10:05:56;;;;;;;8.20;5.45;;;;;;;16.32;56.29;98592.41;1222418;75;2933983;-69
2023/12/27 10:08:29;;;;;;;7.40;5.20;;;;;;;18.01;52.97;98593.03;1222411;75;2931883;-64
2023/12/27 10:11:02;;;;;;;6.45;4.95;;;;;;;18.27;50.22;98590.00;1221546;75;2920826;-65
2023/12/27 10:13:38;;;;;;;8.40;5.85;;;;;;;19.08;48.53;98594.88;1222600;75;2931067;-68
2023/12/27 10:16:14;;;;;;;6.40;5.00;;;;;;;22.23;44.15;98586.03;1223019;75;2937609;-65
2023/12/27 10:18:49;;;;;;;10.15;6.80;;;;;;;19.08;46.92;98581.00;1223762;75;2914666;-67
2023/12/27 10:21:22;;;;;;;9.90;6.30;;;;;;;21.64;43.42;98580.34;1223586;75;2919730;-64
2023/12/27 10:23:55;;;;;;;9.25;5.90;;;;;;;22.92;41.27;98575.88;1222294;75;3029340;-67
2023/12/27 10:26:27;;;;;;;8.85;6.40;;;;;;;21.13;43.10;98573.97;1223139;75;2923040;-68
2023/12/27 10:29:00;;;;;;;6.00;4.85;;;;;;;23.70;40.24;98569.88;1221269;75;2927231;-68
2023/12/27 10:31:37;;;;;;;5.35;4.45;;;;;;;25.43;38.64;98565.81;1222987;75;2941751;-66
2023/12/27 10:34:10;;;;;;;7.75;5.65;;;;;;;20.74;42.90;98573.16;1223163;75;2933753;-70
2023/12/27 10:36:43;;;;;;;8.35;5.70;;;;;;;22.20;42.10;98564.00;1223259;75;2942254;-67
2023/12/27 10:39:17;;;;;;;7.70;4.20;;;;;;;19.58;44.75;98555.72;1223250;75;2938557;-66
2023/12/27 10:41:50;;;;;;;5.80;3.70;;;;;;;21.17;43.42;98557.72;1221058;75;3042284;-67
2023/12/27 10:44:23;;;;;;;6.75;3.75;;;;;;;19.96;44.99;98549.63;1224285;75;2924407;-68
2023/12/27 10:46:59;;;;;;;6.05;3.50;;;;;;;21.77;42.08;98543.44;1223384;75;2918466;-67
2023/12/27 10:49:34;;;;;;;5.40;2.70;;;;;;;21.77;41.54;98542.66;1223421;75;2965155;-68
2023/12/27 10:52:08;;;;;;;4.25;2.00;;;;;;;22.31;40.57;98538.72;1223479;75;2942821;-70
2023/12/27 10:54:46;;;;;;;3.20;2.40;;;;;;;20.33;44.10;98534.38;1224035;75;2920831;-65
2023/12/27 10:57:22;;;;;;;3.25;2.30;;;;;;;20.54;44.48;98537.44;1223849;75;2924386;-67
2023/12/27 10:59:56;;;;;;;4.40;2.20;;;;;;;18.37;48.91;98539.84;1223619;75;2929930;-67
2023/12/27 11:02:33;;;;;;;3.60;2.50;;;;;;;17.19;50.88;98535.00;1223733;75;2933067;-66
2023/12/27 11:05:07;;;;;;;4.05;2.20;;;;;;;17.24;52.25;98539.81;1223614;75;2930008;-68
2023/12/27 11:07:42;;;;;;;4.35;2.40;;;;;;;14.88;56.49;98536.09;1225364;75;2919974;-66
2023/12/27 11:10:15;;;;;;;3.65;2.15;;;;;;;16.42;53.74;98534.19;1224505;75;2927039;-68
2023/12/27 11:12:51;;;;;;;4.25;2.50;;;;;;;14.22;58.61;98540.22;1224075;75;2928270;-67
2023/12/27 11:15:24;;;;;;;4.65;2.50;;;;;;;16.38;54.97;98534.44;1224461;75;2918985;-68
2023/12/27 11:18:04;;;;;;;4.25;2.95;;;;;;;17.44;51.96;98525.75;1224775;75;2927916;-64
2023/12/27 11:20:39;;;;;;;5.35;2.30;;;;;;;19.45;47.94;98518.69;1224311;75;2933420;-66
2023/12/27 11:23:12;;;;;;;3.55;2.40;;;;;;;21.98;44.61;98515.69;1224430;75;2921138;-65
2023/12/27 11:25:45;;;;;;;6.80;3.85;;;;;;;19.25;47.85;98500.41;1224689;75;2931542;-69
2023/12/27 11:28:18;;;;;;;7.05;3.10;;;;;;;19.48;47.60;98493.44;1224397;75;2934813;-66
2023/12/27 11:30:52;;;;;;;5.30;2.95;;;;;;;18.50;47.98;98490.91;1224441;75;2929289;-66
2023/12/27 11:33:27;;;;;;;3.45;2.70;;;;;;;19.93;49.12;98490.28;1224801;75;2926716;-65
2023/12/27 11:36:01;;;;;;;7.15;2.90;;;;;;;18.44;47.73;98487.38;1224985;75;2928506;-65
2023/12/27 11:38:35;;;;;;;4.75;2.35;;;;;;;15.87;53.52;98489.13;1224008;75;2927866;-66
2023/12/27 11:41:09;;;;;;;3.90;2.25;;;;;;;16.11;54.39;98484.03;1224277;75;2931301;-65
2023/12/27 11:43:56;;;;;;;3.35;2.10;;;;;;;16.31;54.22;98488.66;1225127;75;2923455;-67